Time;durP1;ratioP1;P1;durP2;ratioP2;P2;SDS_P1;SDS_P2;PMS_P1;PMS_P2;Temp;Humidity;BMP_temperature;BMP_pressure;BME280_temperature;BME280_humidity;BME280_pressure;Samples;Min_cycle;Max_cycle;Signal;HPM_P1;HPM_P2
2022/05/04 00:01:53;;;;;;;9.90;4.82;;;;;;;;;;5019672;28;20186;-84
2022/05/04 00:04:20;;;;;;;8.50;4.32;;;;;;;;;;5020401;28;20037;-74
2022/05/04 00:06:46;;;;;;;9.55;4.72;;;;;;;;;;5002363;28;20492;-75
2022/05/04 00:09:11;;;;;;;14.15;5.00;;;;;;;;;;5020957;28;20068;-75
2022/05/04 00:11:37;;;;;;;9.57;4.45;;;;;;;;;;5022443;28;20412;-74
2022/05/04 00:14:02;;;;;;;7.55;4.80;;;;;;;;;;5006947;28;20045;-75
2022/05/04 00:16:28;;;;;;;15.23;5.07;;;;;;;;;;5023711;28;20041;-77
2022/05/04 00:18:54;;;;;;;7.25;4.60;;;;;;;;;;5020932;28;20154;-75
2022/05/04 00:21:19;;;;;;;11.43;5.22;;;;;;;;;;5022643;28;20033;-77
2022/05/04 00:23:45;;;;;;;14.93;5.53;;;;;;;;;;5006878;28;20514;-76
2022/05/04 00:26:10;;;;;;;14.07;5.38;;;;;;;;;;5025251;28;20065;-75
2022/05/04 00:28:36;;;;;;;9.25;5.03;;;;;;;;;;5021467;28;20390;-75
2022/05/04 00:31:01;;;;;;;9.60;5.22;;;;;;;;;;5003400;28;20033;-75
2022/05/04 00:33:27;;;;;;;11.40;5.57;;;;;;;;;;5006237;28;20030;-83
2022/05/04 00:35:52;;;;;;;16.95;6.07;;;;;;;;;;5003365;28;20033;-84
2022/05/04 00:38:18;;;;;;;10.60;5.88;;;;;;;;;;5004156;28;20091;-83
2022/05/04 00:40:43;;;;;;;10.95;6.20;;;;;;;;;;5018560;28;20069;-83
2022/05/04 00:43:22;;;;;;;10.95;5.75;;;;;;;;;;5015726;28;20504;-84
2022/05/04 00:45:47;;;;;;;11.35;5.78;;;;;;;;;;5020886;28;20108;-81
2022/05/04 00:48:13;;;;;;;9.57;5.40;;;;;;;;;;5004288;28;20140;-82
2022/05/04 00:50:39;;;;;;;17.52;6.00;;;;;;;;;;5043347;28;20042;-83
2022/05/04 00:53:05;;;;;;;11.82;6.55;;;;;;;;;;5024003;28;20029;-84
2022/05/04 00:55:30;;;;;;;10.77;5.35;;;;;;;;;;4987054;28;20037;-84
2022/05/04 01:00:41;;;;;;;11.20;4.10;;;;;;;;;;5022574;28;20156;-82
2022/05/04 01:03:07;;;;;;;12.13;4.95;;;;;;;;;;5007627;28;20120;-76
2022/05/04 01:05:32;;;;;;;9.63;4.10;;;;;;;;;;5020637;28;20041;-76
2022/05/04 01:07:58;;;;;;;14.10;5.20;;;;;;;;;;5020891;28;20621;-75
2022/05/04 01:10:23;;;;;;;9.02;4.05;;;;;;;;;;5025659;28;20025;-76
2022/05/04 01:12:51;;;;;;;8.25;4.35;;;;;;;;;;5020128;28;20057;-75
2022/05/04 01:15:18;;;;;;;7.28;4.38;;;;;;;;;;5014986;28;20033;-75
2022/05/04 01:17:44;;;;;;;11.55;3.80;;;;;;;;;;5025622;28;20455;-75
2022/05/04 01:20:10;;;;;;;8.75;4.32;;;;;;;;;;5025235;28;20087;-75
2022/05/04 01:22:36;;;;;;;7.40;3.90;;;;;;;;;;5021376;28;20042;-75
2022/05/04 01:25:03;;;;;;;7.72;3.63;;;;;;;;;;5026688;28;20476;-75
2022/05/04 01:27:28;;;;;;;7.28;3.50;;;;;;;;;;5026945;28;20104;-75
2022/05/04 01:29:54;;;;;;;6.30;3.65;;;;;;;;;;5026191;28;20109;-76
2022/05/04 01:32:19;;;;;;;5.55;3.08;;;;;;;;;;5022963;28;20064;-75
2022/05/04 01:34:45;;;;;;;6.72;2.85;;;;;;;;;;5025328;28;20048;-84
2022/05/04 01:37:10;;;;;;;7.22;3.00;;;;;;;;;;4991570;28;20025;-85
2022/05/04 01:39:36;;;;;;;5.82;3.10;;;;;;;;;;5023647;28;20702;-83
2022/05/04 01:42:35;;;;;;;4.93;2.22;;;;;;;;;;4992528;28;20445;-83
2022/05/04 01:44:54;;;;;;;8.18;2.17;;;;;;;;;;5023827;28;20048;-84
2022/05/04 01:47:19;;;;;;;4.40;2.78;;;;;;;;;;5024712;28;20049;-83
2022/05/04 01:49:44;;;;;;;5.63;2.70;;;;;;;;;;5004421;28;20030;-84
2022/05/04 01:52:10;;;;;;;4.90;2.42;;;;;;;;;;5025334;28;20039;-84
2022/05/04 01:54:35;;;;;;;4.45;2.90;;;;;;;;;;5008625;28;20119;-84
2022/05/04 01:57:01;;;;;;;4.88;2.38;;;;;;;;;;5026263;28;20614;-84
2022/05/04 01:59:26;;;;;;;6.00;2.72;;;;;;;;;;5028458;28;20034;-84
2022/05/04 02:01:52;;;;;;;12.80;3.35;;;;;;;;;;5024070;28;20026;-84
2022/05/04 02:04:19;;;;;;;8.23;2.47;;;;;;;;;;5021346;28;20031;-84
2022/05/04 02:06:45;;;;;;;6.03;2.88;;;;;;;;;;5022600;28;20048;-85
2022/05/04 02:09:11;;;;;;;6.10;3.15;;;;;;;;;;5022375;28;20053;-84
2022/05/04 02:11:37;;;;;;;6.68;3.20;;;;;;;;;;5027858;28;20041;-84
2022/05/04 02:14:03;;;;;;;6.45;3.50;;;;;;;;;;5008762;28;20036;-84
2022/05/04 02:16:29;;;;;;;6.60;3.88;;;;;;;;;;5025021;28;20029;-84
2022/05/04 02:18:55;;;;;;;10.50;4.15;;;;;;;;;;5023854;28;20025;-84
2022/05/04 02:21:21;;;;;;;6.20;3.50;;;;;;;;;;5026816;28;20041;-84
2022/05/04 02:23:46;;;;;;;8.32;3.40;;;;;;;;;;5025642;28;20121;-85
2022/05/04 02:26:12;;;;;;;7.50;3.63;;;;;;;;;;5025189;28;20021;-83
2022/05/04 02:28:38;;;;;;;6.65;2.80;;;;;;;;;;5026238;28;20028;-84
2022/05/04 02:31:03;;;;;;;5.18;2.90;;;;;;;;;;5020995;28;20058;-85
2022/05/04 02:33:29;;;;;;;4.95;2.70;;;;;;;;;;5039923;28;20026;-84
2022/05/04 02:38:39;;;;;;;6.28;2.60;;;;;;;;;;5021899;28;20079;-85
2022/05/04 02:41:05;;;;;;;8.27;3.20;;;;;;;;;;5025757;28;20030;-84
2022/05/04 02:43:30;;;;;;;7.63;2.67;;;;;;;;;;5011822;28;20037;-84
2022/05/04 02:45:57;;;;;;;8.23;2.72;;;;;;;;;;5013732;28;20504;-85
2022/05/04 02:48:22;;;;;;;5.05;2.60;;;;;;;;;;4989797;28;20045;-84
2022/05/04 02:50:48;;;;;;;8.82;2.30;;;;;;;;;;5019355;28;20131;-84
2022/05/04 02:53:14;;;;;;;4.13;1.85;;;;;;;;;;5013177;28;20048;-84
2022/05/04 02:55:40;;;;;;;6.95;2.22;;;;;;;;;;5026361;28;20460;-85
2022/05/04 02:58:06;;;;;;;4.07;2.10;;;;;;;;;;5018295;28;20125;-84
2022/05/04 03:00:31;;;;;;;6.57;2.47;;;;;;;;;;5022251;28;20034;-83
2022/05/04 03:02:57;;;;;;;5.45;1.90;;;;;;;;;;5025744;28;20029;-75
2022/05/04 03:05:23;;;;;;;2.92;1.92;;;;;;;;;;5022350;28;20029;-75
2022/05/04 03:07:49;;;;;;;4.93;2.53;;;;;;;;;;5019941;28;20140;-76
2022/05/04 03:10:15;;;;;;;3.42;1.90;;;;;;;;;;5025501;28;20120;-75
2022/05/04 03:12:41;;;;;;;7.47;2.08;;;;;;;;;;5015948;28;20087;-77
2022/05/04 03:15:07;;;;;;;2.85;1.65;;;;;;;;;;5023803;28;20033;-76
2022/05/04 03:17:33;;;;;;;7.35;2.10;;;;;;;;;;5024006;28;20567;-76
2022/05/04 03:20:00;;;;;;;4.88;2.08;;;;;;;;;;5019046;28;20037;-76
2022/05/04 03:22:26;;;;;;;3.03;1.83;;;;;;;;;;5020316;28;20415;-76
2022/05/04 03:24:52;;;;;;;5.97;2.58;;;;;;;;;;5015557;28;20030;-75
2022/05/04 03:27:18;;;;;;;10.27;2.55;;;;;;;;;;5022826;28;20025;-76
2022/05/04 03:29:43;;;;;;;5.53;2.20;;;;;;;;;;5024503;28;20067;-76
2022/05/04 03:32:10;;;;;;;4.45;2.47;;;;;;;;;;5004363;28;20081;-75
2022/05/04 03:34:36;;;;;;;7.55;2.22;;;;;;;;;;5027025;28;20028;-82
2022/05/04 03:37:02;;;;;;;6.40;2.53;;;;;;;;;;5024676;28;20038;-84
2022/05/04 03:39:29;;;;;;;3.97;2.00;;;;;;;;;;5023303;28;20029;-85
2022/05/04 03:41:55;;;;;;;6.13;2.53;;;;;;;;;;5020831;28;20045;-85
2022/05/04 03:44:20;;;;;;;7.13;2.17;;;;;;;;;;5006625;28;20033;-84
2022/05/04 03:46:48;;;;;;;7.72;2.25;;;;;;;;;;5018109;28;20059;-84
2022/05/04 03:49:15;;;;;;;3.47;2.05;;;;;;;;;;5024897;28;20073;-84
2022/05/04 03:51:41;;;;;;;4.68;2.40;;;;;;;;;;5022766;28;20035;-84
2022/05/04 03:54:07;;;;;;;4.00;2.08;;;;;;;;;;5018489;28;20739;-84
2022/05/04 03:56:33;;;;;;;6.22;2.33;;;;;;;;;;5023582;28;20128;-85
2022/05/04 03:58:59;;;;;;;7.47;2.42;;;;;;;;;;5003195;28;21238;-86
2022/05/04 04:01:24;;;;;;;7.40;2.28;;;;;;;;;;5020193;28;20057;-84
2022/05/04 04:03:50;;;;;;;6.30;2.50;;;;;;;;;;4991044;28;20037;-76
2022/05/04 04:06:15;;;;;;;7.22;2.65;;;;;;;;;;5023950;28;20041;-76
2022/05/04 04:08:41;;;;;;;5.00;2.25;;;;;;;;;;5022270;28;20441;-76
2022/05/04 04:11:07;;;;;;;6.78;2.53;;;;;;;;;;5024275;28;20479;-75
2022/05/04 04:13:32;;;;;;;2.85;2.40;;;;;;;;;;5020362;28;20060;-76
2022/05/04 04:15:58;;;;;;;5.00;3.05;;;;;;;;;;5020012;28;20086;-76
2022/05/04 04:18:25;;;;;;;4.95;2.38;;;;;;;;;;5032425;28;20068;-76
2022/05/04 04:23:36;;;;;;;8.70;2.60;;;;;;;;;;5018086;28;20112;-77
2022/05/04 04:26:03;;;;;;;3.33;2.30;;;;;;;;;;5021135;28;20112;-77
2022/05/04 04:28:29;;;;;;;8.48;2.70;;;;;;;;;;5035787;28;20029;-76
2022/05/04 04:30:54;;;;;;;5.25;2.40;;;;;;;;;;5023682;28;20037;-76
2022/05/04 04:33:24;;;;;;;8.95;3.25;;;;;;;;;;5022894;28;20083;-77
2022/05/04 04:35:51;;;;;;;6.32;2.92;;;;;;;;;;5021248;28;20533;-76
2022/05/04 04:38:16;;;;;;;10.27;2.78;;;;;;;;;;5030300;28;20609;-76
2022/05/04 04:40:42;;;;;;;8.73;3.50;;;;;;;;;;5009052;28;20057;-75
2022/05/04 04:43:07;;;;;;;7.90;3.50;;;;;;;;;;5019314;28;20117;-76
2022/05/04 04:45:33;;;;;;;8.95;2.53;;;;;;;;;;5021088;28;20033;-75
2022/05/04 04:47:59;;;;;;;8.20;2.80;;;;;;;;;;4986319;28;20057;-76
2022/05/04 04:50:24;;;;;;;6.70;2.75;;;;;;;;;;5020735;28;20536;-76
2022/05/04 04:52:51;;;;;;;8.27;3.70;;;;;;;;;;5024016;28;20049;-76
2022/05/04 04:55:17;;;;;;;6.43;3.10;;;;;;;;;;5019386;28;20028;-76
2022/05/04 04:57:43;;;;;;;7.45;2.60;;;;;;;;;;5017936;28;20036;-76
2022/05/04 05:00:09;;;;;;;10.00;3.20;;;;;;;;;;4987485;28;20065;-76
2022/05/04 05:02:35;;;;;;;6.20;2.70;;;;;;;;;;5017277;28;20026;-76
2022/05/04 05:05:04;;;;;;;7.40;2.75;;;;;;;;;;5000964;28;20051;-76
2022/05/04 05:07:30;;;;;;;7.78;2.97;;;;;;;;;;5020422;28;20037;-76
2022/05/04 05:09:56;;;;;;;7.75;2.95;;;;;;;;;;5021972;28;20751;-76
2022/05/04 05:12:22;;;;;;;5.13;2.72;;;;;;;;;;5006406;28;20399;-76
2022/05/04 05:17:34;;;;;;;6.68;3.15;;;;;;;;;;5022636;28;20133;-76
2022/05/04 05:20:00;;;;;;;10.77;3.30;;;;;;;;;;5026500;28;20049;-76
2022/05/04 05:22:25;;;;;;;9.70;3.30;;;;;;;;;;5017729;28;20030;-76
2022/05/04 05:24:51;;;;;;;7.70;3.30;;;;;;;;;;5020904;28;21283;-77
2022/05/04 05:27:16;;;;;;;11.00;3.05;;;;;;;;;;5022398;28;20064;-76
2022/05/04 05:29:42;;;;;;;7.13;2.45;;;;;;;;;;4988479;28;20917;-75
2022/05/04 05:32:08;;;;;;;6.90;2.25;;;;;;;;;;5018751;28;20100;-76
2022/05/04 05:34:34;;;;;;;6.72;2.40;;;;;;;;;;4983875;28;20025;-84
2022/05/04 05:37:03;;;;;;;11.52;2.75;;;;;;;;;;5006024;28;20037;-83
2022/05/04 05:39:28;;;;;;;10.32;2.70;;;;;;;;;;5008728;28;20030;-83
2022/05/04 05:41:54;;;;;;;8.85;2.35;;;;;;;;;;5023253;28;20044;-84
2022/05/04 05:44:20;;;;;;;8.57;2.20;;;;;;;;;;5021884;28;20389;-84
2022/05/04 05:46:46;;;;;;;7.90;2.47;;;;;;;;;;5008675;28;20149;-83
2022/05/04 05:49:11;;;;;;;11.88;2.50;;;;;;;;;;5010085;28;20029;-83
2022/05/04 05:51:37;;;;;;;9.52;2.70;;;;;;;;;;5018612;28;20059;-83
2022/05/04 05:54:02;;;;;;;5.05;1.88;;;;;;;;;;5028346;28;20439;-84
2022/05/04 05:56:28;;;;;;;10.13;2.58;;;;;;;;;;4992939;28;20034;-84
2022/05/04 05:58:53;;;;;;;3.17;1.90;;;;;;;;;;5007574;28;20044;-83
2022/05/04 06:01:19;;;;;;;6.85;2.20;;;;;;;;;;5018389;28;20080;-83
2022/05/04 06:03:45;;;;;;;6.78;2.30;;;;;;;;;;5016662;28;20033;-83
2022/05/04 06:06:10;;;;;;;13.20;2.08;;;;;;;;;;5021588;28;20029;-83
2022/05/04 06:08:36;;;;;;;5.55;1.85;;;;;;;;;;5005569;28;20420;-82
2022/05/04 06:11:01;;;;;;;7.10;1.90;;;;;;;;;;4993982;28;20511;-83
2022/05/04 06:13:27;;;;;;;7.90;2.03;;;;;;;;;;5027361;28;20037;-83
2022/05/04 06:15:53;;;;;;;4.18;1.65;;;;;;;;;;5026200;28;20719;-84
2022/05/04 06:18:18;;;;;;;8.80;1.80;;;;;;;;;;5022900;28;20037;-83
2022/05/04 06:20:44;;;;;;;4.50;1.60;;;;;;;;;;5019118;28;20591;-84
2022/05/04 06:23:10;;;;;;;6.60;2.20;;;;;;;;;;5028185;28;20049;-84
2022/05/04 06:25:36;;;;;;;14.90;2.47;;;;;;;;;;5009774;28;20120;-84
2022/05/04 06:28:03;;;;;;;10.82;2.35;;;;;;;;;;5012915;28;20415;-85
2022/05/04 06:35:56;;;;;;;14.63;2.30;;;;;;;;;;5011643;28;20504;-76
2022/05/04 06:38:21;;;;;;;6.05;1.95;;;;;;;;;;4988308;28;20049;-75
2022/05/04 06:40:47;;;;;;;5.13;1.90;;;;;;;;;;5004977;28;20076;-76
2022/05/04 06:43:12;;;;;;;7.07;2.15;;;;;;;;;;4989398;28;20037;-75
2022/05/04 06:45:38;;;;;;;10.32;2.55;;;;;;;;;;5023439;28;20040;-75
2022/05/04 06:48:04;;;;;;;10.55;2.33;;;;;;;;;;5018055;28;20132;-76
2022/05/04 06:50:30;;;;;;;6.72;2.67;;;;;;;;;;5003784;28;20485;-77
2022/05/04 06:52:56;;;;;;;6.00;2.35;;;;;;;;;;5021021;28;20180;-74
2022/05/04 06:55:21;;;;;;;6.20;2.45;;;;;;;;;;5006361;28;20538;-75
2022/05/04 06:57:47;;;;;;;9.68;2.67;;;;;;;;;;5035591;28;20025;-74
2022/05/04 07:00:13;;;;;;;8.05;2.42;;;;;;;;;;5020530;28;20040;-74
2022/05/04 07:02:38;;;;;;;10.43;2.78;;;;;;;;;;4984215;28;20057;-74
2022/05/04 07:05:05;;;;;;;12.10;2.30;;;;;;;;;;5021983;28;20616;-74
2022/05/04 07:07:31;;;;;;;13.20;3.20;;;;;;;;;;5003130;28;20040;-75
2022/05/04 07:09:58;;;;;;;11.25;2.08;;;;;;;;;;5020114;28;20037;-74
2022/05/04 07:12:24;;;;;;;6.90;2.50;;;;;;;;;;5004644;28;20479;-77
2022/05/04 07:14:49;;;;;;;10.73;2.65;;;;;;;;;;5007417;28;20083;-75
2022/05/04 07:17:15;;;;;;;7.72;2.65;;;;;;;;;;5017500;28;20017;-75
2022/05/04 07:19:40;;;;;;;7.82;2.75;;;;;;;;;;5023704;28;20025;-75
2022/05/04 07:22:06;;;;;;;11.30;2.75;;;;;;;;;;5024872;28;20182;-75
2022/05/04 07:24:31;;;;;;;8.35;2.50;;;;;;;;;;5022192;28;20550;-76
2022/05/04 07:26:57;;;;;;;8.32;3.17;;;;;;;;;;5023184;28;20048;-75
2022/05/04 07:29:22;;;;;;;14.82;2.63;;;;;;;;;;5021417;28;20029;-75
2022/05/04 07:31:48;;;;;;;10.13;2.67;;;;;;;;;;5025101;28;20112;-76
2022/05/04 07:34:14;;;;;;;11.38;2.50;;;;;;;;;;5001684;28;20131;-77
2022/05/04 07:36:40;;;;;;;10.70;2.15;;;;;;;;;;5025024;28;20160;-75
2022/05/04 07:39:05;;;;;;;7.70;2.58;;;;;;;;;;5026403;28;20033;-76
2022/05/04 07:44:15;;;;;;;7.18;2.38;;;;;;;;;;5024649;28;20044;-76
2022/05/04 07:46:42;;;;;;;7.22;2.20;;;;;;;;;;5022325;28;20037;-75
2022/05/04 07:49:07;;;;;;;8.80;1.73;;;;;;;;;;5026202;28;20145;-76
2022/05/04 07:51:33;;;;;;;6.18;2.20;;;;;;;;;;5005331;28;20627;-76
2022/05/04 07:53:59;;;;;;;10.95;2.20;;;;;;;;;;5012309;28;20034;-76
2022/05/04 07:56:24;;;;;;;6.18;1.85;;;;;;;;;;5026136;28;20061;-76
2022/05/04 07:58:50;;;;;;;15.43;1.58;;;;;;;;;;5020707;28;20114;-77
2022/05/04 08:04:17;;;;;;;7.15;1.60;;;;;;;;;;5006338;28;20052;-83
2022/05/04 08:06:44;;;;;;;15.73;1.42;;;;;;;;;;5009814;28;20099;-84
2022/05/04 08:09:10;;;;;;;3.35;1.40;;;;;;;;;;5006135;28;20025;-84
2022/05/04 08:11:35;;;;;;;3.50;1.65;;;;;;;;;;4989269;28;20029;-84
2022/05/04 08:14:01;;;;;;;6.15;1.38;;;;;;;;;;5005061;28;20049;-84
2022/05/04 08:16:26;;;;;;;6.60;1.15;;;;;;;;;;5006340;28;20144;-85
2022/05/04 08:18:52;;;;;;;4.25;1.02;;;;;;;;;;5008949;28;20040;-86
2022/05/04 08:21:17;;;;;;;5.20;1.02;;;;;;;;;;5025952;28;20049;-84
2022/05/04 08:23:43;;;;;;;6.05;1.77;;;;;;;;;;5009719;28;20480;-83
2022/05/04 08:26:11;;;;;;;6.57;1.38;;;;;;;;;;5007382;28;20037;-83
2022/05/04 08:28:36;;;;;;;5.07;1.02;;;;;;;;;;4992575;28;20025;-84
2022/05/04 08:31:02;;;;;;;11.82;0.95;;;;;;;;;;5002258;28;20393;-84
2022/05/04 08:33:28;;;;;;;4.63;1.00;;;;;;;;;;5027900;28;20044;-84
2022/05/04 08:35:54;;;;;;;3.17;1.10;;;;;;;;;;5005979;28;20025;-84
2022/05/04 08:38:19;;;;;;;10.73;1.30;;;;;;;;;;5025282;28;20029;-84
2022/05/04 08:40:45;;;;;;;3.30;1.05;;;;;;;;;;4993210;28;20065;-85
2022/05/04 08:43:11;;;;;;;1.98;0.95;;;;;;;;;;5025321;28;20060;-83
2022/05/04 08:45:39;;;;;;;9.10;1.50;;;;;;;;;;5025407;28;20107;-85
2022/05/04 08:48:07;;;;;;;6.95;1.65;;;;;;;;;;5007725;28;20053;-83
2022/05/04 08:50:33;;;;;;;7.55;1.70;;;;;;;;;;5025137;28;20026;-84
2022/05/04 08:53:01;;;;;;;8.60;1.38;;;;;;;;;;5005821;28;20194;-83
2022/05/04 08:55:27;;;;;;;2.80;1.10;;;;;;;;;;5023395;28;20395;-83
2022/05/04 08:57:56;;;;;;;10.13;1.27;;;;;;;;;;5013913;28;20048;-81
2022/05/04 09:00:22;;;;;;;4.80;1.55;;;;;;;;;;5021491;28;20030;-83
2022/05/04 09:02:48;;;;;;;4.03;1.30;;;;;;;;;;5021268;28;20026;-82
2022/05/04 09:05:22;;;;;;;9.18;1.33;;;;;;;;;;5009177;28;20087;-82
2022/05/04 09:07:50;;;;;;;12.75;2.20;;;;;;;;;;5024095;28;20040;-83
2022/05/04 09:10:23;;;;;;;10.32;1.88;;;;;;;;;;5035514;28;20045;-82
2022/05/04 09:12:50;;;;;;;5.55;1.58;;;;;;;;;;5036979;28;20037;-84
2022/05/04 09:15:24;;;;;;;9.98;3.58;;;;;;;;;;5033477;28;20033;-83
2022/05/04 09:18:15;;;;;;;7.15;1.50;;;;;;;;;;5033521;28;20034;-83
2022/05/04 09:20:47;;;;;;;3.10;1.10;;;;;;;;;;5030871;28;20044;-83
2022/05/04 09:23:26;;;;;;;8.95;1.38;;;;;;;;;;5033434;28;20068;-83
2022/05/04 09:25:54;;;;;;;6.55;0.98;;;;;;;;;;5030033;28;20538;-84
2022/05/04 09:28:20;;;;;;;6.13;0.80;;;;;;;;;;5026794;28;20037;-81
2022/05/04 09:31:03;;;;;;;4.38;1.00;;;;;;;;;;5033833;28;20480;-81
2022/05/04 09:33:32;;;;;;;3.03;1.10;;;;;;;;;;5034879;28;20052;-84
2022/05/04 09:35:59;;;;;;;3.95;0.80;;;;;;;;;;5028606;28;20076;-83
2022/05/04 09:46:48;;;;;;;8.02;1.10;;;;;;;;;;5031833;28;20087;-83
2022/05/04 09:49:18;;;;;;;4.97;1.30;;;;;;;;;;5028735;28;20034;-84
2022/05/04 09:51:53;;;;;;;2.50;1.00;;;;;;;;;;5028965;28;20088;-84
2022/05/04 09:54:23;;;;;;;9.52;1.33;;;;;;;;;;5031722;28;20029;-84
2022/05/04 09:56:51;;;;;;;2.90;1.20;;;;;;;;;;5014445;28;20036;-84
2022/05/04 09:59:21;;;;;;;4.53;1.58;;;;;;;;;;5034614;28;20025;-83
2022/05/04 10:01:48;;;;;;;5.85;1.90;;;;;;;;;;5030650;28;20103;-83
2022/05/04 10:04:15;;;;;;;3.88;1.70;;;;;;;;;;5033135;28;20036;-83
2022/05/04 10:06:41;;;;;;;4.05;1.42;;;;;;;;;;5029518;28;20484;-83
2022/05/04 10:09:08;;;;;;;9.75;2.15;;;;;;;;;;5031244;28;20518;-83
2022/05/04 10:11:34;;;;;;;2.47;1.38;;;;;;;;;;5033836;28;20048;-82
2022/05/04 10:14:08;;;;;;;6.43;2.05;;;;;;;;;;5032201;28;20095;-82
2022/05/04 10:16:40;;;;;;;3.17;1.55;;;;;;;;;;5031316;28;20033;-83
2022/05/04 10:19:07;;;;;;;;;;;;;;;;;;5018635;28;20496;-85
2022/05/04 10:21:33;;;;;;;6.60;1.58;;;;;;;;;;5019731;28;20073;-83
2022/05/04 10:24:02;;;;;;;3.22;1.60;;;;;;;;;;5009312;28;20475;-84
2022/05/04 10:26:35;;;;;;;3.72;1.23;;;;;;;;;;5003981;28;20048;-82
2022/05/04 10:31:53;;;;;;;6.10;1.60;;;;;;;;;;5026264;28;20091;-83
2022/05/04 10:34:19;;;;;;;3.60;1.73;;;;;;;;;;4989434;28;20107;-84
2022/05/04 10:36:52;;;;;;;4.20;1.75;;;;;;;;;;4994361;28;20065;-85
2022/05/04 10:39:21;;;;;;;3.40;1.45;;;;;;;;;;5019731;28;20492;-83
2022/05/04 10:41:47;;;;;;;3.97;1.65;;;;;;;;;;5021153;28;20102;-84
2022/05/04 10:44:15;;;;;;;4.82;1.80;;;;;;;;;;5009179;28;20128;-77
2022/05/04 10:46:44;;;;;;;3.67;1.60;;;;;;;;;;5025075;28;20037;-76
2022/05/04 10:49:11;;;;;;;8.18;1.80;;;;;;;;;;5024430;28;20043;-77
2022/05/04 10:51:42;;;;;;;5.25;1.90;;;;;;;;;;5024191;28;20255;-77
2022/05/04 10:54:18;;;;;;;5.32;1.80;;;;;;;;;;5010943;28;20064;-77
2022/05/04 10:56:51;;;;;;;3.55;1.70;;;;;;;;;;5020705;28;20022;-74
2022/05/04 10:59:26;;;;;;;4.40;1.80;;;;;;;;;;5003349;28;20032;-75
2022/05/04 11:02:04;;;;;;;9.75;1.90;;;;;;;;;;5022287;28;20030;-76
2022/05/04 11:04:31;;;;;;;8.10;1.77;;;;;;;;;;5022626;28;20671;-75
2022/05/04 11:06:59;;;;;;;5.70;1.65;;;;;;;;;;5006481;28;20087;-75
2022/05/04 11:09:31;;;;;;;4.05;1.77;;;;;;;;;;5024867;28;20029;-75
2022/05/04 11:11:57;;;;;;;;;;;;;;;;;;5021755;28;20025;-75
2022/05/04 11:14:24;;;;;;;6.43;2.10;;;;;;;;;;5019748;28;20694;-83
2022/05/04 11:16:51;;;;;;;11.25;2.42;;;;;;;;;;5008311;28;20025;-83
2022/05/04 11:19:18;;;;;;;4.32;2.20;;;;;;;;;;5022772;28;20029;-85
2022/05/04 11:21:44;;;;;;;8.00;2.33;;;;;;;;;;5022383;28;20581;-82
2022/05/04 11:24:16;;;;;;;7.47;2.17;;;;;;;;;;5023375;28;20032;-82
2022/05/04 11:26:47;;;;;;;10.60;2.55;;;;;;;;;;5026435;28;20032;-82
2022/05/04 11:29:28;;;;;;;7.97;3.28;;;;;;;;;;5021808;28;20056;-83
2022/05/04 11:31:56;;;;;;;10.63;3.13;;;;;;;;;;5020915;28;20495;-82
2022/05/04 11:34:26;;;;;;;14.60;2.58;;;;;;;;;;5006932;28;20029;-81
2022/05/04 11:36:53;;;;;;;5.82;2.60;;;;;;;;;;5019280;28;20037;-83
2022/05/04 11:39:27;;;;;;;6.20;3.17;;;;;;;;;;5008342;28;20124;-83
2022/05/04 11:41:59;;;;;;;8.40;3.78;;;;;;;;;;5022504;28;20611;-83
2022/05/04 11:44:27;;;;;;;7.97;3.08;;;;;;;;;;5025588;28;20040;-84
2022/05/04 11:46:54;;;;;;;6.65;2.97;;;;;;;;;;5029743;28;20045;-82
2022/05/04 11:49:23;;;;;;;6.30;3.03;;;;;;;;;;5022202;28;20021;-82
2022/05/04 11:51:50;;;;;;;12.80;4.05;;;;;;;;;;5025576;28;20030;-81
2022/05/04 11:54:16;;;;;;;15.35;3.92;;;;;;;;;;5027852;28;20025;-81
2022/05/04 11:56:41;;;;;;;12.50;3.88;;;;;;;;;;5011273;28;20036;-82
2022/05/04 11:59:07;;;;;;;18.25;4.32;;;;;;;;;;5004243;28;20068;-82
2022/05/04 12:01:33;;;;;;;8.48;3.80;;;;;;;;;;5020098;28;20067;-82
2022/05/04 12:04:00;;;;;;;16.45;4.05;;;;;;;;;;5024171;28;20118;-83
2022/05/04 12:06:26;;;;;;;17.30;4.10;;;;;;;;;;5019437;28;20444;-82
2022/05/04 12:08:52;;;;;;;9.70;4.25;;;;;;;;;;5026605;28;20029;-81
2022/05/04 12:11:17;;;;;;;11.63;3.70;;;;;;;;;;5019303;28;20384;-82
2022/05/04 12:13:44;;;;;;;18.10;4.68;;;;;;;;;;5007155;28;20029;-74
2022/05/04 12:16:11;;;;;;;16.30;4.03;;;;;;;;;;5020526;28;20037;-75
2022/05/04 12:18:40;;;;;;;17.80;4.50;;;;;;;;;;5023851;28;20392;-74
2022/05/04 12:21:11;;;;;;;13.23;4.15;;;;;;;;;;4991985;28;20162;-75
2022/05/04 12:23:42;;;;;;;19.27;4.72;;;;;;;;;;5020877;28;20203;-75
2022/05/04 12:26:12;;;;;;;18.60;4.32;;;;;;;;;;5023481;28;20029;-75
2022/05/04 12:28:40;;;;;;;24.60;4.88;;;;;;;;;;5024559;28;20033;-75
2022/05/04 12:33:50;;;;;;;15.35;4.45;;;;;;;;;;5023338;28;20052;-74
2022/05/04 12:36:18;;;;;;;14.93;3.90;;;;;;;;;;5024691;28;20075;-74
2022/05/04 12:38:47;;;;;;;11.90;4.07;;;;;;;;;;5007251;28;20029;-75
2022/05/04 12:41:16;;;;;;;11.45;4.43;;;;;;;;;;5021300;28;20036;-75
2022/05/04 12:43:41;;;;;;;18.63;4.97;;;;;;;;;;5021642;28;20051;-81
2022/05/04 12:46:12;;;;;;;12.15;3.70;;;;;;;;;;5018528;28;20033;-81
2022/05/04 12:48:43;;;;;;;14.90;3.90;;;;;;;;;;5007620;28;20137;-82
2022/05/04 12:51:09;;;;;;;12.63;3.88;;;;;;;;;;5025905;28;20781;-79
2022/05/04 12:53:38;;;;;;;14.80;3.45;;;;;;;;;;5017047;28;20412;-81
2022/05/04 12:58:49;;;;;;;12.05;3.53;;;;;;;;;;5023178;28;20406;-82
2022/05/04 13:01:15;;;;;;;17.55;4.35;;;;;;;;;;5023652;28;20038;-80
2022/05/04 13:03:40;;;;;;;15.00;3.85;;;;;;;;;;5022907;28;20515;-80
2022/05/04 13:06:06;;;;;;;18.55;3.72;;;;;;;;;;5001645;28;20148;-83
2022/05/04 13:08:32;;;;;;;18.10;3.47;;;;;;;;;;5022443;28;20042;-81
2022/05/04 13:10:58;;;;;;;14.55;4.03;;;;;;;;;;5006159;28;20033;-82
2022/05/04 13:13:25;;;;;;;13.25;3.20;;;;;;;;;;5007698;28;20052;-74
2022/05/04 13:15:51;;;;;;;17.92;3.63;;;;;;;;;;5008551;28;20124;-74
2022/05/04 13:18:20;;;;;;;13.63;3.30;;;;;;;;;;5016610;28;20033;-75
2022/05/04 13:20:46;;;;;;;14.40;4.63;;;;;;;;;;5015749;28;20025;-74
2022/05/04 13:23:12;;;;;;;20.55;4.70;;;;;;;;;;5012948;28;20032;-74
2022/05/04 13:25:37;;;;;;;15.88;4.05;;;;;;;;;;5016533;28;20400;-75
2022/05/04 13:28:06;;;;;;;17.80;3.55;;;;;;;;;;4996289;28;20519;-75
2022/05/04 13:30:31;;;;;;;10.13;3.10;;;;;;;;;;5022110;28;20026;-74
2022/05/04 13:32:57;;;;;;;15.40;3.40;;;;;;;;;;5023857;28;20408;-74
2022/05/04 13:35:23;;;;;;;13.32;3.30;;;;;;;;;;5023250;28;20061;-75
2022/05/04 13:37:49;;;;;;;11.32;3.78;;;;;;;;;;4989135;28;20894;-75
2022/05/04 13:40:15;;;;;;;11.50;2.90;;;;;;;;;;5018485;28;20029;-75
2022/05/04 13:42:42;;;;;;;13.23;3.47;;;;;;;;;;5027378;28;20029;-85
2022/05/04 13:45:11;;;;;;;10.68;2.85;;;;;;;;;;5025991;28;20037;-82
2022/05/04 13:47:38;;;;;;;12.05;3.40;;;;;;;;;;5023393;28;20134;-83
2022/05/04 13:50:04;;;;;;;17.35;3.70;;;;;;;;;;5023686;28;20071;-82
2022/05/04 13:55:14;;;;;;;11.05;3.13;;;;;;;;;;5025587;28;20056;-81
2022/05/04 13:57:40;;;;;;;9.45;2.58;;;;;;;;;;5025153;28;20025;-81
2022/05/04 14:00:07;;;;;;;11.50;2.88;;;;;;;;;;5026257;28;20030;-80
2022/05/04 14:02:33;;;;;;;13.65;3.20;;;;;;;;;;5040418;28;20111;-82
2022/05/04 14:04:59;;;;;;;8.30;2.67;;;;;;;;;;5023136;28;20160;-82
2022/05/04 14:07:24;;;;;;;15.68;3.58;;;;;;;;;;5028515;28;20127;-82
2022/05/04 14:09:50;;;;;;;10.25;2.85;;;;;;;;;;5025978;28;20400;-81
2022/05/04 14:12:16;;;;;;;11.35;3.30;;;;;;;;;;5007145;28;20040;-81
2022/05/04 14:17:25;;;;;;;13.80;2.90;;;;;;;;;;5025769;28;20051;-83
2022/05/04 14:19:51;;;;;;;9.48;2.38;;;;;;;;;;5021321;28;20018;-82
2022/05/04 14:22:16;;;;;;;11.07;2.78;;;;;;;;;;5025862;28;20068;-82
2022/05/04 14:24:42;;;;;;;13.95;2.80;;;;;;;;;;5008761;28;20171;-83
2022/05/04 14:27:08;;;;;;;11.77;3.15;;;;;;;;;;5025712;28;20041;-82
2022/05/04 14:29:34;;;;;;;10.93;2.55;;;;;;;;;;5009781;28;20021;-82
2022/05/04 14:31:59;;;;;;;8.52;2.47;;;;;;;;;;5020222;28;20067;-82
2022/05/04 14:34:25;;;;;;;22.90;3.00;;;;;;;;;;5009500;28;20060;-82
2022/05/04 14:36:50;;;;;;;7.13;2.95;;;;;;;;;;5008386;28;20612;-82
2022/05/04 14:39:16;;;;;;;7.88;2.75;;;;;;;;;;5024049;28;20017;-82
2022/05/04 14:41:42;;;;;;;16.00;2.90;;;;;;;;;;5019298;28;20048;-82
2022/05/04 14:44:07;;;;;;;17.10;3.63;;;;;;;;;;5026934;28;20643;-75
2022/05/04 14:46:33;;;;;;;19.13;2.90;;;;;;;;;;5027053;28;20037;-76
2022/05/04 14:48:58;;;;;;;12.73;2.58;;;;;;;;;;5024798;28;20109;-75
2022/05/04 14:51:24;;;;;;;9.57;3.00;;;;;;;;;;5019259;28;20037;-75
2022/05/04 14:53:52;;;;;;;9.80;2.70;;;;;;;;;;5007239;28;20116;-75
2022/05/04 14:56:19;;;;;;;15.20;2.78;;;;;;;;;;5043615;28;20499;-75
2022/05/04 14:58:44;;;;;;;7.80;2.80;;;;;;;;;;5025678;28;20636;-75
2022/05/04 15:01:10;;;;;;;16.08;3.60;;;;;;;;;;5007347;28;20044;-75
2022/05/04 15:06:20;;;;;;;7.28;2.78;;;;;;;;;;5021156;28;20154;-75
2022/05/04 15:08:46;;;;;;;15.45;3.38;;;;;;;;;;5028952;28;20101;-75
2022/05/04 15:11:12;;;;;;;8.98;2.92;;;;;;;;;;5028018;28;20029;-75
2022/05/04 15:13:37;;;;;;;11.20;3.78;;;;;;;;;;5009893;28;20035;-82
2022/05/04 15:16:03;;;;;;;8.75;2.85;;;;;;;;;;5033505;28;20065;-84
2022/05/04 15:18:33;;;;;;;9.93;2.83;;;;;;;;;;4994816;28;20051;-82
2022/05/04 15:21:00;;;;;;;7.28;2.50;;;;;;;;;;4995248;28;20033;-83
2022/05/04 15:23:26;;;;;;;12.65;2.88;;;;;;;;;;5019552;28;20595;-82